Oneida, Nebraska
Current Conditions -  °F | °C
As of 6:15 PM on Friday 24 Oct 2014 (Local Time) from KHDE Reporting Station
Clear Clear  
Wind Chill: 79°   Ceiling: Unl
Heat Index: 79°   Visibility: 10mi
Dew Point: 33°   Wind: 0mph
Humidity: 19%   Direction: NA
Pressure: 29.97"   Gusts: NA
Location:  40.3942°N, 99.1223°W
Report Text: KHDE 242315Z AUTO 00000KT 10SM CLR 26/00 A2997 RMK AO2 T02620004
Loading
Personal Weather Stations






























Interactive Weather Map
Tropical Storm Tracking
New forecast layout! Learn more

10-Day Weather Forecast

Advertisements
Track Severe Weather on mobile